Barrhead, United Kingdom
Current Conditions -  °F | °C
As of 9:50 AM on Wednesday 26 Nov 2014 (Local Time) from EGPF Reporting Station
Moderate Fog Moderate Fog  
Wind Chill: 32°   Ceiling: Unl
Heat Index: 36°   Visibility: 0.31mi
Dew Point: 36°   Wind: 5mph
Humidity: 100%   Direction: 280°W
Pressure: 30"   Gusts: NA
Location:  55.8°N, 4.39°W
Report Text: EGPF 260950Z AUTO 28004KT 0500 R05/0800 FG SCT001 02/02 Q1016
Loading
Personal Weather Stations






























Interactive Weather Map New forecast layout! Learn more

10-Day Weather Forecast

Advertisements
Track Severe Weather on mobile